РПИ Хабаровск

Khabarovsk FIR: chief Sergey Balandin 979135 deputy @ vatrus.info

Сквоки, район применения ICAO EUR-J:

Хабаровск 0201-0277, 1601-1617, 5001-5007, 5020, 5047, 5050-5077, 6601-6627, 6660-6677

Лого Хабаровск
Руководитель РПИ

Sergey Balandin*

Инструкторы РПИ
Ivan Aksenenko (Instructor)
Sergey Balandin (Senior Instructor)
Входит в состав
ЗЦ Хабаровск

Диспетчеры РПИ

Диспетчер Рейтинг Допуски *
Igor Melnick Supervisor UHHH_CTR
Ivan Aksenenko Instructor UHHH_CTR
Nikolay Yamushev Controller UHHH_CTR
Sergey Balandin Senior Instructor UHHH_CTR
Evgenii Semendiaev Student UHHH_TWR*
Kirill Ryabov Student 2 UHHH_GND, UHWW_GND
Maxim Korobko Student UHHH_TWR*
Roman Vorontsov Student UHHH_GND*
Vadim Kotelenec Senior Student UHHH_APP

Аэропорты РПИ

ICAO Город Название Погода
UHBB Благовещенск Игнатьево UHBB 161900Z 03002MPS 010V080 9999 SCT033 M23/M26 Q1023 R36/450550 NOSIG RMK QFE749/0999
UHWW Владивосток Владивосток UHWW 161900Z 00000MPS 9999 NSC M16/M22 Q1023 R25L/0///70 NOSIG RMK QFE766
UHKD Комсомольск-на-Амуре Дзёмги
UHKK Комсомольск-на-Амуре Хурба
UHNN Николаевск-на-Амуре Николаевск-на-Амуре
UHOO Охотск Охотск
UHKG Советская Гавань Каменный Ручей
UHKM Советская Гавань Май-Гатка
UHHH Хабаровск Хабаровск UHHH 161900Z 29002MPS 7000 -SN SCT037 M19/M21 Q1019 R23R/490540 NOSIG RMK QFE758/1011
UHSS Южно-Сахалинск Хомутово UHSS 161900Z 35005MPS 8000 -SHSN SCT030CB M05/M07 Q1012 R01/820355 NOSIG RMK MT OBSC QFE758/1010
UHBS
UHNA Аян Аян
UHNB Богородское Богородское
UHSB Буревестник Буревестник
UHBE Зея Зея
UHSO Зональное Зональное
UHWK Кавалерово Кавалерово
UHSI Курильск Итуруп
UHBI Магдагачи Магдагачи
UHSN Ноглики Ноглики
UHSH Оха Новостройка
UHWP Пластун Пластун
UHBW Тында Тында
UHHT Хабаровск Хабаровск
UHHY Чумикан Чумикан
UHSK Шахтерск Шахтёрск
UHBP Экимчан Экимчан
UHSM Южно-Курильск Менделеево